Time;durP1;ratioP1;P1;durP2;ratioP2;P2;SDS_P1;SDS_P2;PMS_P1;PMS_P2;Temp;Humidity;BMP_temperature;BMP_pressure;BME280_temperature;BME280_humidity;BME280_pressure;Samples;Min_cycle;Max_cycle;Signal;HPM_P1;HPM_P2
2022/01/10 00:00:56;;;;;;;13.70;7.38;;;;;;;2.49;100.00;100117.66;10133043;29;20080;-74
2022/01/10 00:05:56;;;;;;;18.88;9.35;;;;;;;3.00;100.00;100208.06;10133950;29;20457;-74
2022/01/10 00:10:57;;;;;;;16.15;9.05;;;;;;;2.91;100.00;100192.09;10134075;29;20071;-74
2022/01/10 00:15:58;;;;;;;16.42;9.25;;;;;;;3.18;100.00;100232.81;10133610;29;20079;-73
2022/01/10 00:20:59;;;;;;;21.55;9.55;;;;;;;2.85;100.00;100168.13;10133242;29;20084;-73
2022/01/10 00:26:00;;;;;;;19.75;9.45;;;;;;;3.38;100.00;100245.19;10132779;29;20049;-74
2022/01/10 00:31:01;;;;;;;16.35;8.07;;;;;;;3.34;100.00;100224.53;10132916;29;20084;-74
2022/01/10 00:36:02;;;;;;;19.60;9.65;;;;;;;3.19;100.00;100222.19;10155929;29;20079;-73
2022/01/10 00:41:04;;;;;;;16.77;10.15;;;;;;;3.04;100.00;100191.09;10172100;29;20044;-73
2022/01/10 00:46:04;;;;;;;21.17;9.23;;;;;;;3.09;100.00;100194.19;10144297;29;20068;-74
2022/01/10 00:51:05;;;;;;;19.00;10.30;;;;;;;2.67;100.00;100137.16;10132865;29;20068;-74
2022/01/10 00:56:09;;;;;;;17.80;10.10;;;;;;;3.09;100.00;100210.78;10133180;29;20060;-74
2022/01/10 01:01:10;;;;;;;20.65;10.75;;;;;;;3.09;100.00;100213.41;10133281;29;20108;-73
2022/01/10 01:06:13;;;;;;;17.60;8.68;;;;;;;3.10;100.00;100209.81;10132743;29;20093;-74
2022/01/10 01:16:31;;;;;;;22.20;10.10;;;;;;;3.04;100.00;100189.28;10139185;29;20072;-74
2022/01/10 01:26:52;;;;;;;21.83;11.23;;;;;;;1.57;100.00;99931.84;10139559;29;20111;-74
2022/01/10 01:31:54;;;;;;;18.88;9.73;;;;;;;2.67;100.00;100121.44;10138239;29;20461;-74
2022/01/10 01:36:56;;;;;;;23.20;11.77;;;;;;;2.22;100.00;100048.09;10137493;29;20068;-73
2022/01/10 01:42:04;;;;;;;21.60;11.38;;;;;;;3.05;100.00;100193.59;10137841;29;20108;-74
2022/01/10 01:47:05;;;;;;;23.27;11.10;;;;;;;2.24;100.00;100066.31;10152164;29;20036;-74
2022/01/10 01:52:06;;;;;;;28.67;11.93;;;;;;;3.10;100.00;100201.09;10152640;29;20128;-74
2022/01/10 01:57:07;;;;;;;22.13;11.00;;;;;;;2.93;100.00;100152.59;10137825;29;20045;-74
2022/01/10 02:02:08;;;;;;;32.08;12.05;;;;;;;2.79;100.00;100118.78;10137686;29;20052;-74
2022/01/10 02:07:09;;;;;;;24.02;11.95;;;;;;;2.88;100.00;100139.84;10136766;29;20060;-73
2022/01/10 02:12:10;;;;;;;32.72;13.07;;;;;;;2.65;100.00;100096.28;10137402;29;20054;-74
2022/01/10 02:17:13;;;;;;;28.42;12.85;;;;;;;2.86;100.00;100127.81;10136759;29;20052;-74
2022/01/10 02:22:13;;;;;;;30.85;12.18;;;;;;;2.82;100.00;100102.78;10136216;29;20048;-73
2022/01/10 02:27:14;;;;;;;28.58;13.00;;;;;;;1.71;100.00;99920.31;10136639;29;20045;-73
2022/01/10 02:32:16;;;;;;;51.58;13.30;;;;;;;1.72;100.00;99928.97;10135998;29;20484;-74
2022/01/10 02:37:31;;;;;;;41.90;14.07;;;;;;;2.99;100.00;100115.34;10136438;29;20116;-74
2022/01/10 02:42:33;;;;;;;61.35;14.50;;;;;;;3.19;100.00;100140.81;10136229;29;20448;-74
2022/01/10 02:47:35;;;;;;;30.02;12.18;;;;;;;3.12;100.00;100121.28;10151495;29;20056;-73
2022/01/10 02:52:37;;;;;;;32.17;13.73;;;;;;;2.88;100.00;100087.38;10134582;29;20053;-74
2022/01/10 02:57:38;;;;;;;47.63;14.13;;;;;;;2.40;100.00;100016.13;10136676;29;20044;-74
2022/01/10 03:02:41;;;;;;;34.97;13.93;;;;;;;2.86;100.00;100097.16;10174446;29;20977;-75
2022/01/10 03:07:42;;;;;;;41.85;13.68;;;;;;;3.10;100.00;100122.34;10172690;29;20055;-73
2022/01/10 03:12:43;;;;;;;34.03;13.40;;;;;;;2.46;100.00;100023.50;10143998;29;20040;-73
2022/01/10 03:17:44;;;;;;;52.30;15.45;;;;;;;3.12;100.00;100136.19;10134911;29;20087;-73
2022/01/10 03:22:45;;;;;;;30.90;13.35;;;;;;;3.06;100.00;100111.28;10134788;29;20080;-73
2022/01/10 03:27:46;;;;;;;22.33;10.98;;;;;;;3.19;100.00;100151.31;10134234;29;20071;-74
2022/01/10 03:32:50;;;;;;;47.17;14.50;;;;;;;3.20;100.00;100136.38;10132932;29;20048;-74
2022/01/10 03:37:51;;;;;;;41.43;16.23;;;;;;;2.80;100.00;100074.03;10133295;29;20104;-73
2022/01/10 03:42:52;;;;;;;42.38;15.50;;;;;;;2.09;100.00;99957.47;10134852;29;20044;-76
2022/01/10 03:47:53;;;;;;;38.75;13.68;;;;;;;3.19;100.00;100150.47;10146209;28;20059;-74
2022/01/10 03:52:54;;;;;;;78.40;15.70;;;;;;;2.97;100.00;100118.13;10171666;29;20044;-81
2022/01/10 03:57:55;;;;;;;39.92;15.02;;;;;;;3.29;100.00;100159.28;10170261;29;20467;-76
2022/01/10 04:03:01;;;;;;;83.47;17.48;;;;;;;2.86;100.00;100097.16;10170942;29;20064;-75
2022/01/10 04:08:03;;;;;;;39.25;16.33;;;;;;;2.59;100.00;100050.38;10172130;29;20504;-74
2022/01/10 04:13:04;;;;;;;34.83;15.30;;;;;;;3.30;100.00;100170.63;10172169;29;20103;-74
2022/01/10 04:18:07;;;;;;;46.03;15.57;;;;;;;3.35;100.00;100178.94;10170757;29;20036;-77
2022/01/10 04:23:08;;;;;;;46.10;16.23;;;;;;;2.21;100.00;99982.69;10188911;29;20055;-80
2022/01/10 04:28:09;;;;;;;54.33;16.13;;;;;;;3.31;100.00;100151.28;10176223;29;20047;-73
2022/01/10 04:33:16;;;;;;;72.93;16.63;;;;;;;2.36;100.00;99997.19;10171576;29;20044;-79
2022/01/10 04:38:17;;;;;;;37.35;16.35;;;;;;;3.41;100.00;100175.78;10172434;29;20412;-72
2022/01/10 04:43:18;;;;;;;29.98;16.52;;;;;;;1.37;100.00;99823.47;10174987;29;20044;-78
2022/01/10 04:48:19;;;;;;;37.38;16.55;;;;;;;2.71;100.00;100044.16;10201762;29;20046;-78
2022/01/10 04:53:20;;;;;;;30.00;16.67;;;;;;;2.80;100.00;100052.22;10180215;29;20052;-78
2022/01/10 04:58:21;;;;;;;33.15;17.10;;;;;;;2.91;100.00;100079.25;10179087;29;20032;-79
2022/01/10 05:03:22;;;;;;;31.25;17.08;;;;;;;3.18;100.00;100105.03;10179703;29;20067;-78
2022/01/10 05:08:24;;;;;;;35.05;16.80;;;;;;;2.76;100.00;100019.34;10189283;29;20509;-78
2022/01/10 05:13:26;;;;;;;30.67;17.27;;;;;;;3.65;100.00;100173.78;10177374;29;20055;-77
2022/01/10 05:18:27;;;;;;;28.77;16.55;;;;;;;3.63;100.00;100159.94;10178500;29;20108;-78
2022/01/10 05:23:27;;;;;;;34.78;18.25;;;;;;;3.31;100.00;100109.25;10178427;29;20139;-77
2022/01/10 05:28:28;;;;;;;30.40;17.30;;;;;;;2.93;100.00;100034.50;10177938;29;20046;-77
2022/01/10 05:33:29;;;;;;;31.67;18.50;;;;;;;2.84;100.00;100006.41;10177668;29;20385;-78
2022/01/10 05:38:30;;;;;;;30.42;17.00;;;;;;;2.93;100.00;100026.66;10177690;29;20420;-78
2022/01/10 05:43:31;;;;;;;28.27;15.70;;;;;;;3.21;100.00;100085.56;10178251;29;20078;-77
2022/01/10 05:48:34;;;;;;;29.73;16.52;;;;;;;3.67;100.00;100144.75;10177433;29;20465;-77
2022/01/10 05:53:35;;;;;;;29.90;18.17;;;;;;;3.29;100.00;100077.03;10176326;29;20115;-77
2022/01/10 05:58:35;;;;;;;35.08;18.42;;;;;;;3.35;100.00;100094.91;10177443;29;20044;-77
2022/01/10 06:03:36;;;;;;;31.67;17.45;;;;;;;3.70;100.00;100122.66;10176655;29;20064;-78
2022/01/10 06:08:37;;;;;;;33.30;18.13;;;;;;;3.39;100.00;100044.66;10176238;29;20048;-78
2022/01/10 06:13:38;;;;;;;33.15;18.02;;;;;;;3.53;100.00;100072.38;10175624;29;20056;-78
2022/01/10 06:18:39;;;;;;;34.60;19.10;;;;;;;2.66;100.00;99920.44;10176147;29;20040;-78
2022/01/10 06:23:40;;;;;;;33.33;18.27;;;;;;;4.00;100.00;100124.47;10175954;29;20106;-78
2022/01/10 06:28:41;;;;;;;31.50;18.65;;;;;;;4.12;100.00;100137.38;10175910;29;20492;-78
2022/01/10 06:33:42;;;;;;;34.08;18.45;;;;;;;3.46;100.00;100012.63;10174888;29;20070;-78
2022/01/10 06:38:43;;;;;;;33.08;19.08;;;;;;;4.21;100.00;100137.56;10175954;29;20176;-78
2022/01/10 06:43:44;;;;;;;33.42;19.80;;;;;;;4.29;100.00;100132.50;10175038;29;20511;-78
2022/01/10 06:48:45;;;;;;;28.98;17.30;;;;;;;4.63;100.00;100163.75;10175186;29;20036;-78
2022/01/10 06:53:46;;;;;;;32.80;17.38;;;;;;;3.40;100.00;99967.53;10175305;29;20083;-78
2022/01/10 06:58:46;;;;;;;32.70;17.38;;;;;;;3.40;100.00;99948.31;10175063;29;20135;-78
2022/01/10 07:03:47;;;;;;;29.60;16.83;;;;;;;4.47;100.00;100123.00;10174708;29;20539;-78
2022/01/10 07:08:48;;;;;;;31.75;17.52;;;;;;;3.72;100.00;100005.16;10173485;29;20449;-78
2022/01/10 07:13:49;;;;;;;31.60;18.50;;;;;;;3.85;100.00;100024.13;10174535;29;20572;-78
2022/01/10 07:18:50;;;;;;;34.85;17.42;;;;;;;3.50;100.00;99957.09;10173283;29;20048;-78
2022/01/10 07:23:51;;;;;;;29.48;17.10;;;;;;;4.91;100.00;100176.16;10174263;29;20039;-77
2022/01/10 07:28:52;;;;;;;28.50;16.30;;;;;;;3.82;100.00;100001.56;10173688;29;20578;-78
2022/01/10 07:33:54;;;;;;;31.45;16.90;;;;;;;4.70;100.00;100155.19;10173181;29;20043;-77
2022/01/10 07:38:55;;;;;;;31.98;16.80;;;;;;;3.99;100.00;100036.91;10173914;29;20158;-78
2022/01/10 07:43:56;;;;;;;32.67;16.52;;;;;;;3.83;100.00;100002.44;10173698;29;20138;-78
2022/01/10 07:48:57;;;;;;;33.22;16.23;;;;;;;4.56;100.00;100119.56;10173714;29;20052;-78
2022/01/10 07:53:59;;;;;;;32.20;17.60;;;;;;;4.59;100.00;100107.94;10173740;29;20412;-78
2022/01/10 07:59:00;;;;;;;36.63;17.77;;;;;;;4.77;100.00;100132.63;10172946;29;20055;-78
2022/01/10 08:04:01;;;;;;;29.30;16.52;;;;;;;4.31;100.00;100043.78;10171925;29;20052;-78
2022/01/10 08:09:02;;;;;;;32.33;17.08;;;;;;;3.95;100.00;99940.91;10172755;29;20441;-78
2022/01/10 08:14:05;;;;;;;30.92;16.05;;;;;;;4.81;100.00;100083.16;10172236;29;20048;-78
2022/01/10 08:19:06;;;;;;;30.75;17.08;;;;;;;4.25;100.00;99978.59;10177550;29;20145;-78
2022/01/10 08:24:07;;;;;;;29.70;16.08;;;;;;;3.47;100.00;99836.56;10180900;29;20040;-78
2022/01/10 08:29:08;;;;;;;24.13;14.52;;;;;;;4.23;100.00;99944.53;10180767;29;20450;-78
2022/01/10 08:34:09;;;;;;;25.17;15.38;;;;;;;5.29;100.00;100113.94;10180499;29;20624;-77
2022/01/10 08:39:10;;;;;;;30.88;16.05;;;;;;;5.21;100.00;100080.41;10179952;29;20135;-78
2022/01/10 08:44:14;;;;;;;27.25;16.15;;;;;;;4.32;99.45;99948.97;10178842;29;20040;-77
2022/01/10 08:49:15;;;;;;;28.63;15.37;;;;;;;5.37;99.33;100082.47;10179614;29;20112;-77
2022/01/10 08:54:16;;;;;;;25.98;15.68;;;;;;;5.01;98.41;100040.09;10179705;29;20452;-77
2022/01/10 08:59:16;;;;;;;30.52;16.95;;;;;;;4.05;98.08;99877.84;10178659;29;20044;-77
2022/01/10 09:04:17;;;;;;;22.67;14.27;;;;;;;5.15;98.07;100044.13;10179006;29;20060;-77
2022/01/10 09:09:19;;;;;;;29.20;14.57;;;;;;;4.17;96.72;99863.59;10178704;29;20048;-77
2022/01/10 09:14:21;;;;;;;25.60;15.05;;;;;;;4.36;97.95;99875.91;10177893;29;20044;-76
2022/01/10 09:19:22;;;;;;;28.27;15.30;;;;;;;5.30;97.25;100002.38;10178621;29;20099;-77
2022/01/10 09:24:23;;;;;;;22.70;14.00;;;;;;;3.81;97.42;99749.50;10179541;29;20449;-76
2022/01/10 09:29:25;;;;;;;22.55;13.40;;;;;;;5.42;96.39;100032.84;10176313;29;20040;-77
2022/01/10 09:34:25;;;;;;;26.88;14.38;;;;;;;3.96;96.42;99808.53;10177858;29;20419;-77
2022/01/10 09:39:27;;;;;;;28.15;14.32;;;;;;;5.31;96.55;99997.94;10178312;29;20151;-77
2022/01/10 09:44:28;;;;;;;27.60;14.32;;;;;;;4.31;96.61;99796.63;10177839;29;20069;-77
2022/01/10 09:49:28;;;;;;;25.17;15.45;;;;;;;5.63;97.47;100013.38;10188926;29;20047;-76
2022/01/10 09:54:29;;;;;;;22.50;12.68;;;;;;;4.37;95.88;99780.28;10174105;29;20082;-77
2022/01/10 09:59:30;;;;;;;21.80;12.77;;;;;;;5.62;96.39;99978.25;10177887;29;20051;-76
2022/01/10 10:04:38;;;;;;;26.83;13.98;;;;;;;5.31;96.37;99948.72;10175384;29;20059;-77
2022/01/10 10:09:39;;;;;;;25.88;12.85;;;;;;;5.23;96.48;99953.84;10176373;29;20051;-77
2022/01/10 10:14:41;;;;;;;23.23;11.32;;;;;;;5.17;96.93;99962.31;10175970;29;20099;-77
2022/01/10 10:19:43;;;;;;;22.17;11.88;;;;;;;4.55;97.13;99878.53;10175633;29;20044;-77
2022/01/10 10:24:47;;;;;;;24.98;11.20;;;;;;;5.09;96.65;99970.13;10174974;29;20492;-77
2022/01/10 10:29:49;;;;;;;21.35;11.25;;;;;;;4.84;96.22;99934.69;10175873;29;20063;-78
2022/01/10 10:34:56;;;;;;;19.60;11.00;;;;;;;4.28;96.16;99849.50;10176035;29;20047;-77
2022/01/10 10:39:58;;;;;;;24.35;10.80;;;;;;;4.03;96.71;99832.47;10174979;29;20138;-77
2022/01/10 10:45:03;;;;;;;20.48;10.77;;;;;;;5.23;96.70;100007.38;10175087;29;20456;-76
2022/01/10 10:50:06;;;;;;;21.45;11.15;;;;;;;4.42;96.55;99890.28;10174309;29;20043;-77
2022/01/10 10:55:10;;;;;;;20.30;10.20;;;;;;;4.96;96.30;99957.25;10174401;29;20083;-78
2022/01/10 11:00:15;;;;;;;18.87;10.00;;;;;;;5.13;96.08;99989.94;10173439;29;20040;-77
2022/01/10 11:05:16;;;;;;;23.35;10.10;;;;;;;4.82;96.53;99940.09;10173569;29;20066;-77
2022/01/10 11:10:17;;;;;;;19.70;10.25;;;;;;;5.13;96.03;99984.66;10174977;29;20081;-77
2022/01/10 11:15:20;;;;;;;22.08;10.57;;;;;;;5.06;95.62;99958.06;10173369;29;20063;-76
2022/01/10 11:20:25;;;;;;;20.23;10.55;;;;;;;4.43;94.59;99844.59;10172710;29;20048;-77
2022/01/10 11:25:27;;;;;;;;;;;;;;;5.19;94.10;99974.38;10174685;29;20048;-77
2022/01/10 11:30:44;;;;;;;18.55;9.35;;;;;;;4.28;94.50;99873.16;10173767;29;19919;-76
2022/01/10 11:35:51;;;;;;;21.52;10.85;;;;;;;4.16;94.42;99842.69;10172424;29;20393;-77
2022/01/10 11:41:04;;;;;;;17.58;9.80;;;;;;;4.98;94.04;99995.63;10173954;29;20048;-76
2022/01/10 11:46:10;;;;;;;19.38;10.80;;;;;;;4.90;94.62;99987.59;10173763;29;20497;-78
2022/01/10 11:51:27;;;;;;;20.05;11.13;;;;;;;4.51;94.33;99937.63;10171962;29;20039;-78
2022/01/10 11:56:32;;;;;;;18.95;10.40;;;;;;;4.23;93.88;99899.03;10149820;29;20044;-77
2022/01/10 12:01:35;;;;;;;19.45;12.05;;;;;;;4.63;94.47;99977.78;10133271;29;20044;-77
2022/01/10 12:06:37;;;;;;;20.02;10.90;;;;;;;4.53;93.64;99967.25;10133955;29;20064;-77
2022/01/10 12:11:39;;;;;;;20.45;10.68;;;;;;;3.73;92.37;99841.28;10133713;29;20040;-77
2022/01/10 12:16:40;;;;;;;18.95;10.80;;;;;;;4.63;92.44;99977.78;10133594;29;20107;-77
2022/01/10 12:21:42;;;;;;;20.33;11.82;;;;;;;4.65;93.60;99982.91;10133356;29;20040;-77
2022/01/10 12:26:43;;;;;;;20.60;12.40;;;;;;;3.48;93.33;99805.88;10132929;29;20453;-78
2022/01/10 12:31:46;;;;;;;22.85;13.48;;;;;;;3.05;93.30;99747.50;10137885;29;20070;-77
2022/01/10 12:36:47;;;;;;;22.02;12.88;;;;;;;4.75;93.90;100041.63;10144395;29;20122;-75
2022/01/10 12:41:49;;;;;;;19.20;12.25;;;;;;;4.80;93.59;100055.19;10132311;29;20044;-78
2022/01/10 12:46:50;;;;;;;20.52;11.98;;;;;;;3.99;93.61;99923.91;10169822;29;20048;-77
2022/01/10 12:51:55;;;;;;;22.73;11.60;;;;;;;4.69;93.75;100023.75;10174044;29;20408;-76
2022/01/10 12:56:59;;;;;;;34.10;12.98;;;;;;;3.64;93.48;99877.91;10177910;29;20063;-76
2022/01/10 13:02:01;;;;;;;21.52;12.93;;;;;;;4.51;94.14;100021.78;10170246;29;20048;-76
2022/01/10 13:07:13;;;;;;;24.15;13.75;;;;;;;4.64;94.04;100039.97;10177034;29;20067;-76
2022/01/10 13:12:28;;;;;;;23.52;14.02;;;;;;;4.14;94.41;99962.94;10175470;29;20188;-76
2022/01/10 13:17:29;;;;;;;26.80;13.48;;;;;;;3.98;93.65;99938.03;10178784;29;20056;-77
2022/01/10 13:22:33;;;;;;;25.83;13.30;;;;;;;4.01;94.29;99927.22;10176076;29;20103;-77
2022/01/10 13:27:36;;;;;;;24.02;14.07;;;;;;;4.62;94.31;100033.19;10176564;29;20412;-76
2022/01/10 13:32:38;;;;;;;22.13;13.85;;;;;;;4.68;94.36;100054.50;10176310;29;20083;-76
2022/01/10 13:37:49;;;;;;;21.77;13.18;;;;;;;4.71;94.28;100042.88;10175877;29;20041;-76
2022/01/10 13:42:53;;;;;;;22.98;13.20;;;;;;;4.67;94.71;100062.53;10170760;29;20091;-76
2022/01/10 13:47:59;;;;;;;24.40;13.75;;;;;;;4.63;94.54;100040.91;10176485;29;20183;-76
2022/01/10 13:53:01;;;;;;;24.70;14.13;;;;;;;3.08;94.32;99783.09;10177495;29;20123;-76
2022/01/10 13:58:04;;;;;;;23.38;13.45;;;;;;;3.71;94.10;99885.25;10177512;29;20095;-75
2022/01/10 14:03:05;;;;;;;21.25;13.40;;;;;;;3.49;94.31;99866.13;10176180;29;20040;-76
2022/01/10 14:08:13;;;;;;;22.45;13.15;;;;;;;4.63;94.22;100050.63;10175813;29;20068;-76
2022/01/10 14:13:14;;;;;;;25.75;14.27;;;;;;;4.44;94.17;100019.88;10178957;29;20050;-76
2022/01/10 14:18:14;;;;;;;23.63;13.63;;;;;;;4.33;94.27;100002.41;10174814;29;20040;-77
2022/01/10 14:23:17;;;;;;;24.55;13.77;;;;;;;3.57;93.68;99876.81;10173561;29;20485;-76
2022/01/10 14:28:19;;;;;;;29.95;13.57;;;;;;;3.84;93.55;99930.50;10172323;29;20044;-76
2022/01/10 14:33:23;;;;;;;24.70;16.10;;;;;;;3.70;93.37;99902.81;10169605;29;20044;-76
2022/01/10 14:38:29;;;;;;;38.77;23.43;;;;;;;4.03;92.97;99966.50;10173099;29;20036;-76
2022/01/10 14:43:30;;;;;;;26.98;15.63;;;;;;;4.23;93.24;100006.81;10173661;29;20036;-76
2022/01/10 14:48:31;;;;;;;29.63;15.85;;;;;;;4.67;93.48;100066.00;10173991;29;20032;-76
2022/01/10 14:53:32;;;;;;;35.90;20.45;;;;;;;3.81;92.92;99928.97;10173500;29;20082;-75
2022/01/10 14:58:33;;;;;;;27.50;16.35;;;;;;;4.72;93.26;100082.19;10173498;29;20043;-75
2022/01/10 15:03:34;;;;;;;32.47;16.27;;;;;;;3.80;93.08;99931.72;10173298;29;20066;-74
2022/01/10 15:08:37;;;;;;;40.80;24.15;;;;;;;3.67;93.04;99911.78;10156275;28;20519;-72
2022/01/10 15:13:38;;;;;;;44.88;25.73;;;;;;;4.66;92.51;100074.84;10175422;29;20048;-73
2022/01/10 15:18:40;;;;;;;38.33;22.30;;;;;;;4.77;92.65;100108.09;10196605;29;20050;-74
2022/01/10 15:23:42;;;;;;;38.45;19.98;;;;;;;4.29;92.64;100046.53;10211990;29;20050;-75
2022/01/10 15:28:44;;;;;;;28.70;15.73;;;;;;;3.45;92.42;99911.19;10212179;29;20046;-75
2022/01/10 15:33:45;;;;;;;22.90;14.63;;;;;;;4.76;92.50;100119.63;10177426;29;20146;-73
2022/01/10 15:38:46;;;;;;;22.75;14.10;;;;;;;4.64;92.21;100104.91;10146666;29;20568;-76
2022/01/10 15:43:51;;;;;;;21.58;12.45;;;;;;;4.75;91.82;100117.94;10173420;29;20198;-78
2022/01/10 15:48:52;;;;;;;21.05;13.45;;;;;;;4.67;92.51;100123.88;10139437;29;20051;-73
2022/01/10 15:53:52;;;;;;;24.60;12.80;;;;;;;4.50;92.65;100088.53;10134308;29;20070;-74
2022/01/10 15:58:53;;;;;;;20.77;12.77;;;;;;;4.18;92.23;100046.66;10133284;29;20457;-77
2022/01/10 16:03:54;;;;;;;20.42;12.93;;;;;;;2.11;91.72;99697.00;10155992;29;20036;-75
2022/01/10 16:08:55;;;;;;;22.52;13.35;;;;;;;3.58;92.15;99945.91;10170354;29;20056;-75
2022/01/10 16:13:56;;;;;;;21.60;13.45;;;;;;;4.01;92.23;100040.25;10170356;29;20075;-76
2022/01/10 16:18:57;;;;;;;23.50;14.52;;;;;;;3.06;91.73;99901.34;10163543;29;20048;-76
2022/01/10 16:23:58;;;;;;;23.98;14.88;;;;;;;3.41;91.44;99968.34;10169815;29;20048;-77
2022/01/10 16:28:59;;;;;;;31.85;15.43;;;;;;;4.03;91.62;100074.28;10168907;29;20198;-76
2022/01/10 16:34:00;;;;;;;24.52;14.45;;;;;;;2.54;92.14;99827.03;10169945;29;20040;-77
2022/01/10 16:39:01;;;;;;;39.00;12.50;;;;;;;4.61;91.92;100148.09;10173429;29;20051;-76
2022/01/10 16:44:02;;;;;;;20.83;13.48;;;;;;;4.67;91.71;100162.53;10174940;29;20055;-76
2022/01/10 16:49:03;;;;;;;26.80;13.60;;;;;;;3.98;91.38;100053.66;10176432;29;20108;-76
2022/01/10 16:54:07;;;;;;;23.98;13.43;;;;;;;4.71;90.92;100171.81;10176635;29;20044;-78
2022/01/10 16:59:08;;;;;;;26.43;13.37;;;;;;;1.98;90.64;99752.22;10176035;29;20160;-77
2022/01/10 17:04:09;;;;;;;25.83;13.02;;;;;;;1.94;91.00;99731.63;10178259;29;20047;-78
2022/01/10 17:09:10;;;;;;;26.67;14.05;;;;;;;3.47;91.07;99998.53;10175782;29;20052;-78
2022/01/10 17:14:11;;;;;;;29.45;12.95;;;;;;;4.09;91.50;100079.81;10169066;29;20519;-76
2022/01/10 17:19:12;;;;;;;23.80;13.40;;;;;;;4.40;91.45;100123.66;10170293;29;20052;-76
2022/01/10 17:24:14;;;;;;;26.52;13.77;;;;;;;3.94;91.29;100080.31;10176758;29;20032;-76
2022/01/10 17:29:15;;;;;;;24.55;13.90;;;;;;;3.54;91.27;100002.31;10174558;29;20100;-76
2022/01/10 17:34:15;;;;;;;24.92;13.77;;;;;;;4.60;91.68;100178.00;10174987;29;20048;-77
2022/01/10 17:39:16;;;;;;;35.20;17.40;;;;;;;2.63;90.83;99843.78;10191411;29;20052;-75
2022/01/10 17:44:17;;;;;;;26.60;14.88;;;;;;;3.73;91.39;100019.94;10175536;29;20078;-75
2022/01/10 17:49:26;;;;;;;25.95;13.98;;;;;;;4.77;90.76;100160.75;10174925;29;20554;-76
2022/01/10 17:54:29;;;;;;;24.45;13.82;;;;;;;4.42;90.81;100121.72;10175350;29;20478;-76
2022/01/10 17:59:29;;;;;;;30.75;14.30;;;;;;;3.32;91.08;99941.13;10172623;29;20059;-75
2022/01/10 18:04:31;;;;;;;41.25;17.38;;;;;;;3.31;91.18;99944.69;10175778;29;20059;-76
2022/01/10 18:09:34;;;;;;;30.92;16.88;;;;;;;4.74;90.81;100177.63;10177885;29;20055;-76
2022/01/10 18:14:35;;;;;;;33.47;20.17;;;;;;;4.04;91.04;100079.41;10174167;29;20095;-76
2022/01/10 18:19:37;;;;;;;25.90;15.38;;;;;;;3.70;91.06;100021.03;10166433;29;20078;-77
2022/01/10 18:24:38;;;;;;;29.60;14.65;;;;;;;2.97;91.13;99925.75;10172257;29;20044;-76
2022/01/10 18:29:39;;;;;;;24.30;13.93;;;;;;;3.53;91.19;100030.38;10173712;29;20044;-76
2022/01/10 18:34:40;;;;;;;26.17;14.43;;;;;;;3.59;91.54;100040.34;10172757;29;20044;-76
2022/01/10 18:39:40;;;;;;;27.60;15.10;;;;;;;3.35;91.63;99995.13;10175814;29;20055;-76
2022/01/10 18:44:41;;;;;;;26.17;14.88;;;;;;;4.25;91.58;100152.97;10171833;29;20040;-76
2022/01/10 18:49:42;;;;;;;24.42;14.10;;;;;;;3.47;91.61;100025.63;10171178;29;20047;-76
2022/01/10 18:54:43;;;;;;;27.75;15.60;;;;;;;3.61;91.84;100033.16;10173335;29;20507;-76
2022/01/10 18:59:44;;;;;;;30.08;14.13;;;;;;;4.00;91.19;100100.81;10172298;29;20101;-76
2022/01/10 19:04:46;;;;;;;22.77;13.82;;;;;;;4.66;92.03;100213.47;10171105;29;20508;-76
2022/01/10 19:09:53;;;;;;;21.65;13.13;;;;;;;4.31;92.08;100184.00;10176619;29;20075;-77
2022/01/10 19:14:54;;;;;;;27.25;14.30;;;;;;;4.25;91.79;100162.66;10167746;29;20551;-76
2022/01/10 19:19:56;;;;;;;24.27;13.07;;;;;;;4.28;91.64;100150.06;10156916;29;20052;-77
2022/01/10 19:24:57;;;;;;;26.88;13.25;;;;;;;2.27;90.73;99843.28;10175056;29;20128;-76
2022/01/10 19:29:58;;;;;;;26.88;13.02;;;;;;;2.68;91.03;99915.88;10189436;29;20575;-77
2022/01/10 19:34:59;;;;;;;24.30;13.27;;;;;;;4.66;91.43;100245.88;10205959;29;20104;-77
2022/01/10 19:40:00;;;;;;;27.17;13.13;;;;;;;2.24;91.17;99851.41;10203247;29;20767;-74
2022/01/10 19:45:02;;;;;;;27.27;15.20;;;;;;;3.44;91.77;100052.16;10174990;29;20052;-78
2022/01/10 19:50:04;;;;;;;21.27;13.60;;;;;;;3.66;91.86;100101.91;10211072;29;20059;-77
2022/01/10 19:55:06;;;;;;;30.55;14.50;;;;;;;4.07;91.63;100134.34;10211606;29;20074;-78
2022/01/10 20:00:13;;;;;;;24.88;12.73;;;;;;;4.75;91.98;100242.44;10212107;29;20050;-77
2022/01/10 20:05:17;;;;;;;25.77;14.18;;;;;;;3.28;90.75;100012.38;10211071;29;20040;-78
2022/01/10 20:10:18;;;;;;;28.40;13.35;;;;;;;2.29;90.47;99834.34;10210569;29;20087;-77
2022/01/10 20:15:19;;;;;;;26.85;13.50;;;;;;;2.30;90.25;99858.75;10216110;29;20044;-78
2022/01/10 20:20:21;;;;;;;32.03;13.57;;;;;;;4.60;90.78;100214.00;10219772;29;20047;-78
2022/01/10 20:25:22;;;;;;;22.23;13.27;;;;;;;3.39;91.13;100041.19;10220058;29;20047;-77
2022/01/10 20:30:23;;;;;;;26.60;13.95;;;;;;;2.88;90.42;99950.13;10218767;29;20126;-78
2022/01/10 20:35:26;;;;;;;28.88;14.10;;;;;;;4.03;90.84;100132.09;10217572;29;20420;-78
2022/01/10 20:40:27;;;;;;;31.08;16.40;;;;;;;4.78;91.17;100243.97;10218615;29;20055;-78
2022/01/10 20:45:28;;;;;;;27.05;16.00;;;;;;;3.64;90.61;100053.91;10219340;29;20044;-78
2022/01/10 20:50:29;;;;;;;27.27;14.27;;;;;;;1.87;90.77;99775.03;10218127;29;20499;-77
2022/01/10 20:55:30;;;;;;;26.45;15.13;;;;;;;2.57;90.04;99900.22;10218602;29;20054;-78
2022/01/10 21:00:31;;;;;;;27.08;14.70;;;;;;;2.97;90.75;99973.78;10218513;29;20046;-78
2022/01/10 21:05:32;;;;;;;28.17;15.85;;;;;;;3.47;91.08;100036.13;10218203;29;20070;-78
2022/01/10 21:10:33;;;;;;;26.10;15.10;;;;;;;4.70;91.25;100238.56;10217774;29;20047;-77
2022/01/10 21:15:34;;;;;;;30.83;15.98;;;;;;;2.36;91.01;99844.31;10218315;29;20055;-78
2022/01/10 21:20:35;;;;;;;26.20;14.52;;;;;;;2.73;90.63;99939.94;10217267;29;20099;-78
2022/01/10 21:25:36;;;;;;;34.72;16.10;;;;;;;3.97;90.85;100120.31;10215638;29;20508;-78
2022/01/10 21:30:37;;;;;;;30.02;15.05;;;;;;;3.74;90.86;100103.88;10217789;29;20134;-78
2022/01/10 21:35:40;;;;;;;20.73;13.07;;;;;;;2.29;91.08;99883.31;10216474;29;20126;-78
2022/01/10 21:40:42;;;;;;;28.93;17.80;;;;;;;2.35;90.84;99889.84;10216532;29;20424;-78
2022/01/10 21:45:43;;;;;;;41.28;24.33;;;;;;;1.95;91.66;99798.81;10216322;29;20098;-78
2022/01/10 21:50:44;;;;;;;44.95;23.25;;;;;;;1.96;91.42;99810.94;10216141;29;20051;-78
2022/01/10 21:55:45;;;;;;;52.22;29.17;;;;;;;2.06;91.42;99830.16;10216977;29;20504;-78
2022/01/10 22:00:46;;;;;;;31.73;17.15;;;;;;;4.05;91.49;100145.94;10215611;29;20080;-78
2022/01/10 22:05:47;;;;;;;25.75;14.40;;;;;;;2.31;90.89;99862.25;10215392;29;20067;-78
2022/01/10 22:10:48;;;;;;;23.08;13.40;;;;;;;2.55;91.84;99891.66;10215430;29;20071;-78
2022/01/10 22:15:50;;;;;;;23.58;13.80;;;;;;;2.15;92.27;99832.03;10216134;29;20079;-78
2022/01/10 22:20:57;;;;;;;20.95;12.93;;;;;;;2.38;91.77;99860.75;10215507;29;20044;-78
2022/01/10 22:25:58;;;;;;;29.55;14.48;;;;;;;3.30;91.94;100026.22;10214819;29;20548;-78
2022/01/10 22:31:00;;;;;;;37.03;15.18;;;;;;;3.42;92.21;100067.19;10215121;29;20074;-78
2022/01/10 22:36:02;;;;;;;35.15;15.25;;;;;;;4.60;92.66;100235.03;10214811;29;20420;-78
2022/01/10 22:41:03;;;;;;;26.35;14.35;;;;;;;3.28;91.70;100046.50;10196820;29;20139;-78
2022/01/10 22:46:04;;;;;;;22.08;13.75;;;;;;;1.58;91.95;99786.91;10142074;29;20476;-78
2022/01/10 22:51:08;;;;;;;26.35;13.40;;;;;;;3.16;91.65;100048.38;10136127;29;20045;-78
2022/01/10 22:56:09;;;;;;;24.40;13.65;;;;;;;2.55;92.14;99970.31;10135796;29;20045;-78
2022/01/10 23:01:10;;;;;;;23.60;13.77;;;;;;;2.98;92.20;100048.91;10136624;29;20493;-78